Time;durP1;ratioP1;P1;durP2;ratioP2;P2;SDS_P1;SDS_P2;PMS_P1;PMS_P2;Temp;Humidity;BMP_temperature;BMP_pressure;BME280_temperature;BME280_humidity;BME280_pressure;Samples;Min_cycle;Max_cycle;Signal;HPM_P1;HPM_P2
2024/02/20 00:01:23;;;;;;;29.23;4.13;;;;;;;5.29;100.00;102974.63;5055445;28;20039;-76
2024/02/20 00:03:49;;;;;;;32.55;5.22;;;;;;;5.33;100.00;102974.53;5054997;28;20033;-75
2024/02/20 00:06:14;;;;;;;30.50;4.43;;;;;;;5.37;100.00;102981.44;5054759;28;20059;-75
2024/02/20 00:08:40;;;;;;;35.60;4.97;;;;;;;5.46;100.00;102982.00;5055560;28;20129;-75
2024/02/20 00:11:05;;;;;;;29.02;3.78;;;;;;;5.52;100.00;102975.59;5054852;28;20036;-75
2024/02/20 00:13:31;;;;;;;29.77;4.28;;;;;;;5.58;100.00;102974.53;5036872;28;20045;-75
2024/02/20 00:15:56;;;;;;;35.72;3.40;;;;;;;5.65;100.00;102974.25;5054759;28;20040;-74
2024/02/20 00:18:22;;;;;;;25.75;3.58;;;;;;;5.70;100.00;102968.81;5054642;28;20059;-75
2024/02/20 00:20:47;;;;;;;31.65;4.95;;;;;;;5.77;100.00;102966.81;5054765;28;20037;-75
2024/02/20 00:23:14;;;;;;;30.90;4.40;;;;;;;5.80;100.00;102969.34;5053855;28;20033;-74
2024/02/20 00:25:42;;;;;;;33.70;4.95;;;;;;;5.83;100.00;102967.44;5054495;28;20025;-75
2024/02/20 00:28:08;;;;;;;46.90;5.25;;;;;;;5.88;100.00;102972.59;5054428;28;20040;-75
2024/02/20 00:30:33;;;;;;;21.75;3.63;;;;;;;5.95;100.00;102973.22;5054086;28;20136;-75
2024/02/20 00:32:59;;;;;;;46.80;4.78;;;;;;;5.94;100.00;102961.78;5054453;28;20028;-75
2024/02/20 00:35:24;;;;;;;28.25;4.03;;;;;;;6.00;100.00;102966.00;5054462;28;20094;-75
2024/02/20 00:37:49;;;;;;;31.77;4.43;;;;;;;6.06;100.00;102964.91;5053630;28;20072;-75
2024/02/20 00:40:15;;;;;;;27.33;4.85;;;;;;;6.09;100.00;102960.38;5054399;28;20381;-75
2024/02/20 00:42:40;;;;;;;27.45;4.05;;;;;;;6.15;100.00;102969.84;5036379;28;20040;-75
2024/02/20 00:45:06;;;;;;;32.28;4.22;;;;;;;6.20;100.00;102967.91;5054271;28;20124;-75
2024/02/20 00:47:31;;;;;;;24.15;4.07;;;;;;;6.24;100.00;102955.41;5054110;28;20037;-75
2024/02/20 00:49:57;;;;;;;32.03;4.93;;;;;;;6.26;100.00;102962.38;5054364;28;20032;-74
2024/02/20 00:52:24;;;;;;;29.25;3.80;;;;;;;6.27;100.00;102956.19;5052913;28;20463;-75
2024/02/20 00:54:50;;;;;;;31.38;3.78;;;;;;;6.27;100.00;102956.19;5054037;28;20033;-76
2024/02/20 00:57:15;;;;;;;33.83;4.15;;;;;;;6.27;100.00;102955.28;5053943;28;20517;-75
2024/02/20 00:59:42;;;;;;;29.65;4.13;;;;;;;6.31;100.00;102954.25;5053630;28;20056;-74
2024/02/20 01:02:10;;;;;;;31.90;4.13;;;;;;;6.33;100.00;102952.44;5052690;28;20033;-74
2024/02/20 01:04:39;;;;;;;28.17;3.72;;;;;;;6.32;100.00;102962.13;5054277;28;20101;-75
2024/02/20 01:07:05;;;;;;;27.25;4.10;;;;;;;6.33;100.00;102958.59;5054074;28;20033;-74
2024/02/20 01:09:30;;;;;;;32.50;3.70;;;;;;;6.28;100.00;102955.25;5052936;28;20550;-75
2024/02/20 01:11:56;;;;;;;24.30;3.92;;;;;;;6.31;100.00;102960.41;5052277;28;20037;-75
2024/02/20 01:14:22;;;;;;;20.95;3.78;;;;;;;6.32;100.00;102958.63;5054224;28;20036;-75
2024/02/20 01:16:47;;;;;;;35.33;4.60;;;;;;;6.32;100.00;102961.28;5053536;28;20467;-75
2024/02/20 01:19:13;;;;;;;24.90;4.05;;;;;;;6.31;100.00;102965.69;5053901;28;20040;-75
2024/02/20 01:21:38;;;;;;;29.95;4.47;;;;;;;6.34;100.00;102962.06;5053768;28;20040;-75
2024/02/20 01:24:04;;;;;;;33.22;4.38;;;;;;;6.33;100.00;102955.94;5053915;28;20040;-75
2024/02/20 01:26:30;;;;;;;27.23;4.32;;;;;;;6.34;100.00;102952.38;5053746;28;20038;-76
2024/02/20 01:28:56;;;;;;;30.90;3.92;;;;;;;6.36;100.00;102962.91;5052602;28;20075;-75
2024/02/20 01:31:21;;;;;;;26.70;4.40;;;;;;;6.37;100.00;102966.41;5053462;28;20429;-75
2024/02/20 01:33:47;;;;;;;24.52;4.40;;;;;;;6.35;100.00;102966.44;5052031;28;20033;-74
2024/02/20 01:36:12;;;;;;;38.53;4.50;;;;;;;6.31;100.00;102967.47;5051743;28;20390;-75
2024/02/20 01:38:38;;;;;;;23.90;4.07;;;;;;;6.30;100.00;102957.81;5052962;28;20479;-74
2024/02/20 01:41:03;;;;;;;31.67;4.15;;;;;;;6.27;100.00;102963.22;5053361;28;20467;-75
2024/02/20 01:43:29;;;;;;;30.02;4.28;;;;;;;6.27;100.00;102952.66;5053576;28;20033;-75
2024/02/20 01:45:55;;;;;;;30.02;4.70;;;;;;;6.27;100.00;102950.00;5053124;28;20037;-75
2024/02/20 01:48:20;;;;;;;30.55;4.63;;;;;;;6.29;100.00;102951.69;5053160;28;20391;-75
2024/02/20 01:50:46;;;;;;;28.13;4.05;;;;;;;6.29;100.00;102950.84;5053103;28;20025;-75
2024/02/20 01:53:11;;;;;;;28.63;4.50;;;;;;;6.25;100.00;102950.06;5053687;28;20060;-74
2024/02/20 01:55:37;;;;;;;23.83;3.83;;;;;;;6.21;100.00;102948.50;5053129;28;20120;-75
2024/02/20 01:58:03;;;;;;;26.60;4.25;;;;;;;6.18;100.00;102943.31;5053179;28;20404;-75
2024/02/20 02:00:28;;;;;;;24.83;4.25;;;;;;;6.18;100.00;102938.03;5051978;28;20041;-75
2024/02/20 02:02:54;;;;;;;30.63;4.00;;;;;;;6.20;100.00;102936.19;5053116;28;20028;-74
2024/02/20 02:05:20;;;;;;;23.83;4.60;;;;;;;6.17;100.00;102941.59;5052042;28;20454;-75
2024/02/20 02:07:47;;;;;;;37.53;5.10;;;;;;;6.14;100.00;102937.28;5052943;28;20033;-75
2024/02/20 02:10:13;;;;;;;31.48;4.25;;;;;;;6.11;100.00;102937.38;5052612;28;20033;-74
2024/02/20 02:12:38;;;;;;;32.85;4.97;;;;;;;6.09;100.00;102938.38;5053239;28;20512;-74
2024/02/20 02:15:04;;;;;;;37.42;4.55;;;;;;;6.05;100.00;102935.00;5053066;28;20037;-75
2024/02/20 02:17:29;;;;;;;36.65;4.88;;;;;;;6.06;100.00;102938.47;5053068;28;20114;-75
2024/02/20 02:19:55;;;;;;;22.75;3.97;;;;;;;6.02;100.00;102947.44;5052992;28;20043;-74
2024/02/20 02:22:20;;;;;;;26.55;3.83;;;;;;;5.99;100.00;102948.44;5052814;28;20029;-74
2024/02/20 02:24:45;;;;;;;35.58;4.65;;;;;;;5.98;100.00;102955.47;5052814;28;20150;-75
2024/02/20 02:27:11;;;;;;;27.65;4.75;;;;;;;5.99;100.00;102951.94;5052880;28;20037;-75
2024/02/20 02:29:37;;;;;;;31.20;4.82;;;;;;;5.98;100.00;102944.06;5053092;28;20029;-78
2024/02/20 02:32:03;;;;;;;31.77;4.38;;;;;;;5.96;100.00;102944.09;5053144;28;20386;-74
2024/02/20 02:34:29;;;;;;;19.95;3.70;;;;;;;5.91;100.00;102943.41;5052947;28;20429;-74
2024/02/20 02:36:55;;;;;;;27.30;4.13;;;;;;;5.91;100.00;102938.13;5052679;28;20398;-74
2024/02/20 02:39:22;;;;;;;25.83;3.40;;;;;;;5.91;100.00;102951.34;5052534;28;20037;-74
2024/02/20 02:41:48;;;;;;;23.92;3.53;;;;;;;5.95;100.00;102955.56;5052974;28;20505;-74
2024/02/20 02:44:14;;;;;;;36.05;3.97;;;;;;;5.93;100.00;102954.78;5052736;28;20033;-75
2024/02/20 02:46:39;;;;;;;19.40;3.90;;;;;;;5.92;100.00;102960.97;5052705;28;20386;-75
2024/02/20 02:49:07;;;;;;;31.20;4.75;;;;;;;5.92;100.00;102963.63;5053514;28;20029;-74
2024/02/20 02:51:32;;;;;;;29.55;4.88;;;;;;;5.90;100.00;102959.31;5056989;28;20067;-75
2024/02/20 02:53:57;;;;;;;24.65;4.32;;;;;;;5.91;100.00;102955.75;5056395;28;20069;-74
2024/02/20 02:56:23;;;;;;;25.70;3.97;;;;;;;5.93;100.00;102957.41;5058545;28;20443;-74
2024/02/20 02:58:48;;;;;;;29.42;5.15;;;;;;;5.94;100.00;102967.06;5057491;28;20052;-74
2024/02/20 03:01:14;;;;;;;26.42;5.00;;;;;;;5.98;100.00;102962.56;5059887;28;20112;-74
2024/02/20 03:03:39;;;;;;;39.55;4.57;;;;;;;5.98;100.00;102960.78;5058681;28;20554;-74
2024/02/20 03:06:06;;;;;;;26.50;4.07;;;;;;;5.96;100.00;102954.66;5058557;28;20158;-73
2024/02/20 03:08:32;;;;;;;30.10;4.30;;;;;;;5.97;100.00;102958.19;5058719;28;20052;-74
2024/02/20 03:10:58;;;;;;;30.85;4.13;;;;;;;5.97;100.00;102956.41;5059093;28;20036;-74
2024/02/20 03:13:24;;;;;;;24.98;3.75;;;;;;;6.01;100.00;102951.88;5056292;28;20033;-75
2024/02/20 03:15:49;;;;;;;24.70;4.53;;;;;;;6.02;100.00;102950.97;5056671;28;20055;-75
2024/02/20 03:18:15;;;;;;;35.00;5.40;;;;;;;6.03;100.00;102950.06;5056591;28;20387;-75
2024/02/20 03:20:42;;;;;;;24.40;4.13;;;;;;;6.03;100.00;102936.84;5056729;28;20029;-74
2024/02/20 03:23:08;;;;;;;30.25;3.75;;;;;;;6.03;100.00;102931.56;5056232;28;20068;-74
2024/02/20 03:25:33;;;;;;;30.48;4.47;;;;;;;6.04;100.00;102935.91;5056026;28;20374;-75
2024/02/20 03:28:00;;;;;;;40.90;4.80;;;;;;;6.04;100.00;102930.63;5055984;28;20120;-75
2024/02/20 03:30:29;;;;;;;24.08;4.35;;;;;;;6.06;100.00;102935.84;5055644;28;20029;-74
2024/02/20 03:32:55;;;;;;;30.65;4.85;;;;;;;6.03;100.00;102922.75;5054347;28;20037;-75
2024/02/20 03:35:23;;;;;;;30.73;4.43;;;;;;;6.01;100.00;102930.72;5055657;28;20036;-75
2024/02/20 03:37:49;;;;;;;30.67;4.97;;;;;;;6.01;100.00;102922.81;5055847;28;20130;-75
2024/02/20 03:40:16;;;;;;;29.50;4.55;;;;;;;6.02;100.00;102921.91;5055240;28;20138;-76
2024/02/20 03:42:41;;;;;;;33.75;4.40;;;;;;;6.03;100.00;102922.75;5055169;28;20067;-75
2024/02/20 03:45:07;;;;;;;28.65;4.72;;;;;;;6.00;100.00;102924.59;5055297;28;20045;-75
2024/02/20 03:47:32;;;;;;;27.65;4.95;;;;;;;6.01;100.00;102920.16;5053068;28;20029;-79
2024/02/20 03:49:58;;;;;;;32.33;5.07;;;;;;;6.03;100.00;102922.75;5053873;28;20025;-80
2024/02/20 03:52:23;;;;;;;32.20;4.53;;;;;;;6.01;100.00;102917.50;5036259;28;20025;-79
2024/02/20 03:54:49;;;;;;;31.92;4.30;;;;;;;6.04;100.00;102920.03;5054184;28;20522;-80
2024/02/20 03:57:14;;;;;;;26.77;3.83;;;;;;;6.04;100.00;102914.75;5053899;28;20029;-79
2024/02/20 03:59:39;;;;;;;28.15;4.70;;;;;;;6.08;100.00;102912.88;5054310;28;20033;-79
2024/02/20 04:02:05;;;;;;;34.53;4.18;;;;;;;6.10;100.00;102913.66;5051893;28;20040;-79
2024/02/20 04:04:30;;;;;;;36.58;4.13;;;;;;;6.08;100.00;102907.59;5053673;28;20178;-79
2024/02/20 04:06:56;;;;;;;30.88;4.82;;;;;;;6.09;100.00;102910.16;5053584;28;20332;-80
2024/02/20 04:09:21;;;;;;;30.77;4.90;;;;;;;6.09;100.00;102899.59;5053746;28;20033;-78
2024/02/20 04:11:46;;;;;;;29.92;4.78;;;;;;;6.07;100.00;102900.56;5052936;28;20051;-80
2024/02/20 04:14:12;;;;;;;35.28;5.10;;;;;;;6.06;100.00;102899.72;5053628;28;20064;-78
2024/02/20 04:16:37;;;;;;;32.08;4.32;;;;;;;6.06;100.00;102896.19;5052192;28;20386;-79
2024/02/20 04:19:02;;;;;;;26.52;4.05;;;;;;;6.05;100.00;102907.72;5052378;28;20029;-79
2024/02/20 04:21:28;;;;;;;25.33;4.20;;;;;;;6.06;100.00;102912.94;5053407;28;20040;-80
2024/02/20 04:23:53;;;;;;;28.33;5.22;;;;;;;6.05;100.00;102908.56;5053101;28;20483;-80
2024/02/20 04:26:18;;;;;;;31.30;4.30;;;;;;;6.07;100.00;102913.78;5052297;28;20033;-79
2024/02/20 04:28:44;;;;;;;28.30;5.10;;;;;;;6.05;100.00;102916.50;5053344;28;20031;-79
2024/02/20 04:31:09;;;;;;;29.15;4.53;;;;;;;6.03;100.00;102912.16;5051704;28;20364;-79
2024/02/20 04:33:34;;;;;;;30.83;3.80;;;;;;;6.04;100.00;102905.97;5053508;28;20033;-79
2024/02/20 04:36:00;;;;;;;27.33;4.22;;;;;;;5.99;100.00;102900.88;5051418;28;20395;-80
2024/02/20 04:38:25;;;;;;;28.77;3.65;;;;;;;5.94;100.00;102901.00;5051989;28;20396;-79
2024/02/20 04:40:51;;;;;;;36.83;5.40;;;;;;;5.91;100.00;102911.72;5053097;28;20045;-79
2024/02/20 04:43:17;;;;;;;39.38;4.28;;;;;;;5.92;100.00;102912.56;5035046;28;20434;-79
2024/02/20 04:45:44;;;;;;;25.70;3.75;;;;;;;5.94;100.00;102910.69;5052931;28;20115;-79
2024/02/20 04:48:10;;;;;;;29.20;4.57;;;;;;;6.00;100.00;102913.13;5053526;28;20037;-79
2024/02/20 04:50:36;;;;;;;29.27;4.90;;;;;;;5.98;100.00;102913.19;5053008;28;20033;-79
2024/02/20 04:53:01;;;;;;;36.45;4.60;;;;;;;5.96;100.00;102917.66;5053141;28;20071;-79
2024/02/20 04:55:26;;;;;;;25.75;4.75;;;;;;;5.96;100.00;102920.31;5052974;28;20028;-79
2024/02/20 04:57:53;;;;;;;28.95;5.10;;;;;;;5.92;100.00;102912.56;5053353;28;20151;-79
2024/02/20 05:00:18;;;;;;;29.45;4.75;;;;;;;5.90;100.00;102909.97;5051553;28;20364;-80
2024/02/20 05:02:44;;;;;;;27.42;3.80;;;;;;;5.88;100.00;102906.53;5052733;28;20102;-80
2024/02/20 05:05:09;;;;;;;29.65;5.80;;;;;;;5.89;100.00;102896.81;5052929;28;20108;-80
2024/02/20 05:07:36;;;;;;;33.88;5.18;;;;;;;5.88;100.00;102890.69;5053481;28;20446;-78
2024/02/20 05:10:01;;;;;;;34.70;5.60;;;;;;;5.83;100.00;102892.63;5052458;28;20029;-79
2024/02/20 05:12:27;;;;;;;25.95;4.53;;;;;;;5.78;100.00;102890.16;5051351;28;20040;-78
2024/02/20 05:14:52;;;;;;;36.85;5.57;;;;;;;5.75;100.00;102889.44;5052150;28;20029;-78
2024/02/20 05:17:18;;;;;;;29.48;4.55;;;;;;;5.73;100.00;102889.47;5052263;28;20439;-78
2024/02/20 05:19:43;;;;;;;24.63;4.65;;;;;;;5.76;100.00;102892.00;5051995;28;20064;-78
2024/02/20 05:22:09;;;;;;;29.02;4.30;;;;;;;5.76;100.00;102891.13;5051993;28;20451;-80
2024/02/20 05:24:38;;;;;;;23.92;4.43;;;;;;;5.73;100.00;102891.25;5052716;28;20382;-79
2024/02/20 05:27:04;;;;;;;37.95;4.85;;;;;;;5.65;100.00;102889.75;5052388;28;20083;-78
2024/02/20 05:29:30;;;;;;;32.65;4.43;;;;;;;5.61;100.00;102893.44;5050484;28;20482;-78
2024/02/20 05:31:58;;;;;;;35.85;5.07;;;;;;;5.61;100.00;102890.78;5051959;28;20060;-78
2024/02/20 05:34:23;;;;;;;39.28;5.95;;;;;;;5.62;100.00;102896.94;5050575;28;20151;-77
2024/02/20 05:36:49;;;;;;;34.80;5.18;;;;;;;5.68;100.00;102895.84;5052158;28;20426;-80
2024/02/20 05:39:14;;;;;;;25.40;4.20;;;;;;;5.68;100.00;102899.34;5051916;28;20029;-78
2024/02/20 05:41:40;;;;;;;28.27;3.80;;;;;;;5.63;100.00;102904.78;5050769;28;20040;-78
2024/02/20 05:44:05;;;;;;;27.92;4.32;;;;;;;5.60;100.00;102902.28;5052144;28;20029;-79
2024/02/20 05:46:32;;;;;;;24.65;4.03;;;;;;;5.59;100.00;102899.69;5051972;28;20033;-77
2024/02/20 05:48:58;;;;;;;33.25;4.55;;;;;;;5.55;100.00;102898.06;5050463;28;20029;-78
2024/02/20 05:51:25;;;;;;;30.58;4.20;;;;;;;5.53;100.00;102895.47;5051836;28;20112;-78
2024/02/20 05:53:51;;;;;;;33.25;5.05;;;;;;;5.55;100.00;102908.63;5051656;28;20029;-78
2024/02/20 05:56:16;;;;;;;39.63;5.03;;;;;;;5.63;100.00;102903.94;5051620;28;20029;-78
2024/02/20 05:58:42;;;;;;;32.22;4.93;;;;;;;5.61;100.00;102908.41;5052060;28;20443;-78
2024/02/20 06:01:08;;;;;;;39.28;4.97;;;;;;;5.58;100.00;102904.13;5051312;28;20036;-79
2024/02/20 06:03:37;;;;;;;36.42;5.13;;;;;;;5.61;100.00;102901.38;5052038;28;20032;-78
2024/02/20 06:06:07;;;;;;;31.27;3.95;;;;;;;5.61;100.00;102903.13;5051571;28;20538;-78
2024/02/20 06:08:40;;;;;;;26.98;4.30;;;;;;;5.58;100.00;102901.47;5051696;28;20035;-77
2024/02/20 06:11:06;;;;;;;34.95;5.40;;;;;;;5.56;100.00;102897.16;5051671;28;20395;-79
2024/02/20 06:13:31;;;;;;;34.22;4.70;;;;;;;5.51;100.00;102894.69;5051275;28;20080;-78
2024/02/20 06:15:56;;;;;;;37.58;5.68;;;;;;;5.48;100.00;102897.44;5050426;28;20037;-78
2024/02/20 06:18:22;;;;;;;29.90;4.05;;;;;;;5.45;100.00;102895.75;5051523;28;20029;-78
2024/02/20 06:20:48;;;;;;;25.58;4.18;;;;;;;5.41;100.00;102888.88;5050413;28;20044;-78
2024/02/20 06:23:14;;;;;;;39.17;6.38;;;;;;;5.38;100.00;102888.97;5051997;28;20033;-79
2024/02/20 06:25:42;;;;;;;30.92;5.82;;;;;;;5.37;100.00;102889.88;5054114;28;20032;-78
2024/02/20 06:28:08;;;;;;;35.80;4.57;;;;;;;5.34;100.00;102881.22;5055419;28;20116;-79
2024/02/20 06:30:33;;;;;;;39.20;6.07;;;;;;;5.34;100.00;102887.34;5055338;28;20040;-79
2024/02/20 06:32:58;;;;;;;30.80;4.25;;;;;;;5.33;100.00;102880.38;5055481;28;20102;-79
2024/02/20 06:35:23;;;;;;;22.17;4.65;;;;;;;5.31;100.00;102879.53;5055259;28;20060;-81
2024/02/20 06:37:49;;;;;;;18.95;3.92;;;;;;;5.27;100.00;102886.72;5055226;28;20098;-81
2024/02/20 06:40:14;;;;;;;33.60;5.18;;;;;;;5.20;100.00;102885.22;5054711;28;20033;-79
2024/02/20 06:42:40;;;;;;;40.35;6.78;;;;;;;5.16;100.00;102888.88;5054980;28;20029;-81
2024/02/20 06:45:08;;;;;;;38.38;5.20;;;;;;;5.12;100.00;102882.00;5053606;28;20423;-80
2024/02/20 06:47:33;;;;;;;31.63;4.50;;;;;;;5.05;100.00;102881.34;5054409;28;20037;-80
2024/02/20 06:49:59;;;;;;;36.30;6.15;;;;;;;5.02;100.00;102880.59;5054978;28;20090;-80
2024/02/20 06:52:24;;;;;;;20.73;4.22;;;;;;;4.98;100.00;102885.09;5054697;28;20112;-83
2024/02/20 06:54:49;;;;;;;31.80;4.18;;;;;;;4.93;100.00;102882.63;5054945;28;20443;-82
2024/02/20 06:57:17;;;;;;;34.08;5.95;;;;;;;4.88;100.00;102886.31;5054329;28;20061;-81
2024/02/20 06:59:42;;;;;;;24.95;4.78;;;;;;;4.82;100.00;102883.91;5054599;28;20041;-82
2024/02/20 07:02:08;;;;;;;33.53;4.75;;;;;;;4.78;100.00;102888.41;5054937;28;20033;-80
2024/02/20 07:04:40;;;;;;;42.50;5.32;;;;;;;4.76;100.00;102888.47;5053079;28;20037;-80
2024/02/20 07:07:06;;;;;;;38.53;5.57;;;;;;;4.79;100.00;102886.63;5055203;28;20040;-81
2024/02/20 07:09:31;;;;;;;25.55;4.30;;;;;;;4.81;100.00;102877.75;5054780;28;20037;-83
2024/02/20 07:11:56;;;;;;;24.55;4.80;;;;;;;4.82;100.00;102876.88;5054190;28;20535;-81
2024/02/20 07:14:22;;;;;;;41.08;6.15;;;;;;;4.83;100.00;102873.28;5054510;28;20041;-83
2024/02/20 07:16:47;;;;;;;31.45;5.75;;;;;;;4.85;100.00;102884.66;5036442;28;20109;-81
2024/02/20 07:19:13;;;;;;;33.50;5.10;;;;;;;4.91;100.00;102880.94;5054073;28;20033;-83
2024/02/20 07:21:38;;;;;;;30.75;5.30;;;;;;;4.92;100.00;102874.75;5054343;28;20119;-82
2024/02/20 07:24:04;;;;;;;22.02;4.57;;;;;;;4.95;100.00;102874.66;5054226;28;20029;-81
2024/02/20 07:26:29;;;;;;;21.63;4.63;;;;;;;5.00;100.00;102877.13;5054145;28;20033;-82
2024/02/20 07:28:56;;;;;;;33.58;4.85;;;;;;;5.05;100.00;102867.28;5053862;28;20085;-82
2024/02/20 07:31:23;;;;;;;22.65;5.47;;;;;;;5.13;100.00;102873.16;5052550;28;20071;-82
2024/02/20 07:33:48;;;;;;;28.08;5.32;;;;;;;5.20;100.00;102887.00;5054248;28;20032;-81
2024/02/20 07:36:15;;;;;;;36.50;6.00;;;;;;;5.29;100.00;102884.03;5053179;28;20056;-81
2024/02/20 07:38:43;;;;;;;27.52;5.60;;;;;;;5.36;100.00;102874.97;5054214;28;20037;-83
2024/02/20 07:41:08;;;;;;;34.17;5.93;;;;;;;5.44;100.00;102875.56;5054257;28;20106;-80
2024/02/20 07:43:34;;;;;;;40.10;5.72;;;;;;;5.55;100.00;102888.34;5052560;28;20033;-81
2024/02/20 07:46:00;;;;;;;38.03;5.85;;;;;;;5.63;100.00;102878.38;5053980;28;20043;-80
2024/02/20 07:48:26;;;;;;;41.55;6.93;;;;;;;5.75;100.00;102886.78;5053674;28;20112;-81
2024/02/20 07:50:51;;;;;;;32.50;6.55;;;;;;;5.82;100.00;102897.06;5052914;28;20036;-82
2024/02/20 07:53:17;;;;;;;36.58;6.10;;;;;;;5.88;100.00;102898.63;5053910;28;20028;-82
2024/02/20 07:55:42;;;;;;;36.58;7.30;;;;;;;5.96;100.00;102895.66;5053390;28;20029;-82
2024/02/20 07:58:08;;;;;;;28.33;5.50;;;;;;;6.02;100.00;102897.22;5054523;28;20053;-79
2024/02/20 08:00:34;;;;;;;33.50;5.95;;;;;;;6.06;100.00;102896.19;5053837;28;20045;-81
2024/02/20 08:03:00;;;;;;;28.15;5.35;;;;;;;6.07;100.00;102900.56;5054128;28;20029;-81
2024/02/20 08:05:27;;;;;;;34.03;6.03;;;;;;;6.08;100.00;102897.88;5053762;28;20321;-81
2024/02/20 08:07:53;;;;;;;40.72;6.68;;;;;;;6.07;100.00;102887.34;5053939;28;20037;-80
2024/02/20 08:10:19;;;;;;;29.75;6.50;;;;;;;6.08;100.00;102882.00;5053674;28;20037;-81
2024/02/20 08:12:44;;;;;;;35.83;6.47;;;;;;;6.11;100.00;102883.69;5053998;28;20082;-81
2024/02/20 08:15:10;;;;;;;30.83;5.57;;;;;;;6.13;100.00;102879.19;5054507;28;20383;-81
2024/02/20 08:17:35;;;;;;;33.33;6.05;;;;;;;6.18;100.00;102879.88;5035800;28;20067;-81
2024/02/20 08:20:01;;;;;;;36.00;6.18;;;;;;;6.24;100.00;102884.91;5053804;28;20075;-81
2024/02/20 08:22:26;;;;;;;39.88;7.20;;;;;;;6.31;100.00;102886.38;5052496;28;20364;-83
2024/02/20 08:24:51;;;;;;;40.17;6.25;;;;;;;6.43;100.00;102887.66;5053565;28;20212;-81
2024/02/20 08:27:17;;;;;;;35.95;6.65;;;;;;;6.51;100.00;102890.03;5053799;28;20028;-80
2024/02/20 08:29:42;;;;;;;35.90;6.68;;;;;;;6.59;100.00;102889.72;5053507;28;20080;-80
2024/02/20 08:32:07;;;;;;;39.55;5.72;;;;;;;6.64;100.00;102887.72;5052171;28;20037;-81
2024/02/20 08:34:33;;;;;;;36.05;5.65;;;;;;;6.67;100.00;102882.31;5052036;28;20075;-81
2024/02/20 08:36:58;;;;;;;33.78;5.32;;;;;;;6.70;100.00;102879.53;5053315;28;20139;-80
2024/02/20 08:39:24;;;;;;;29.70;5.78;;;;;;;6.70;100.00;102871.59;5051939;28;20029;-88
2024/02/20 08:41:49;;;;;;;25.35;4.70;;;;;;;6.73;100.00;102873.25;5053652;28;20486;-80
2024/02/20 08:44:15;;;;;;;40.47;6.15;;;;;;;6.78;100.00;102873.94;5053105;28;20079;-79
2024/02/20 08:46:40;;;;;;;28.10;4.75;;;;;;;6.80;100.00;102874.72;5052897;28;20029;-80
2024/02/20 08:49:05;;;;;;;38.47;5.88;;;;;;;6.87;100.00;102878.84;5052062;28;20451;-79
2024/02/20 08:51:31;;;;;;;33.45;5.32;;;;;;;6.94;100.00;102871.47;5052543;28;20066;-79
2024/02/20 08:53:56;;;;;;;29.55;4.85;;;;;;;7.00;100.00;102858.84;5052942;28;20029;-79
2024/02/20 08:56:22;;;;;;;27.73;4.70;;;;;;;7.08;100.00;102861.16;5051454;28;20025;-78
2024/02/20 08:58:51;;;;;;;32.53;5.07;;;;;;;7.11;100.00;102863.69;5052918;28;20075;-80
2024/02/20 09:01:17;;;;;;;25.40;4.88;;;;;;;7.16;100.00;102859.03;5051945;28;20037;-80
2024/02/20 09:03:42;;;;;;;21.27;4.13;;;;;;;7.27;100.00;102855.94;5052434;28;20048;-79
2024/02/20 09:06:08;;;;;;;23.42;4.85;;;;;;;7.35;100.00;102850.28;5051489;28;20459;-79
2024/02/20 09:08:33;;;;;;;26.08;5.47;;;;;;;7.38;100.00;102848.34;5051444;28;20041;-79
2024/02/20 09:11:03;;;;;;;31.58;4.25;;;;;;;7.46;100.00;102855.09;5052609;28;20425;-79
2024/02/20 09:13:30;;;;;;;29.17;4.95;;;;;;;7.56;100.00;102848.44;5052930;28;20035;-85
2024/02/20 09:15:55;;;;;;;26.85;4.72;;;;;;;7.59;100.00;102854.47;5052945;28;20043;-80
2024/02/20 09:18:22;;;;;;;23.95;4.63;;;;;;;7.68;100.00;102853.19;5052886;28;20041;-80
2024/02/20 09:20:47;;;;;;;27.08;5.00;;;;;;;7.78;100.00;102853.63;5034887;28;20041;-81
2024/02/20 09:23:13;;;;;;;23.23;4.63;;;;;;;7.83;100.00;102846.31;5051596;28;20037;-80
2024/02/20 09:25:41;;;;;;;30.92;5.55;;;;;;;7.96;100.00;102841.28;5051221;28;20127;-80
2024/02/20 09:28:06;;;;;;;27.50;5.07;;;;;;;8.01;100.00;102841.91;5051166;28;20029;-80
2024/02/20 09:30:31;;;;;;;29.60;4.68;;;;;;;8.01;100.00;102833.97;5051204;28;20036;-82
2024/02/20 09:32:57;;;;;;;26.55;4.80;;;;;;;8.14;100.00;102836.03;5052880;28;20065;-82
2024/02/20 09:35:22;;;;;;;21.92;4.78;;;;;;;8.24;100.00;102834.63;5052282;28;20093;-80
2024/02/20 09:37:49;;;;;;;28.13;5.00;;;;;;;8.38;100.00;102834.84;5052291;28;20056;-80
2024/02/20 09:40:19;;;;;;;23.83;4.85;;;;;;;8.43;100.00;102829.28;5052737;28;20048;-79
2024/02/20 09:42:49;;;;;;;26.58;4.85;;;;;;;8.49;100.00;102817.56;5052204;28;20053;-80
2024/02/20 09:45:19;;;;;;;41.13;5.78;;;;;;;8.55;100.00;102826.06;5052696;28;20062;-80
2024/02/20 09:47:46;;;;;;;23.35;4.50;;;;;;;8.57;100.00;102820.66;5052293;28;20052;-80
2024/02/20 09:50:18;;;;;;;22.23;5.10;;;;;;;8.50;100.00;102820.13;5052042;28;20190;-81
2024/02/20 09:52:51;;;;;;;28.55;4.50;;;;;;;8.56;100.00;102816.31;5052297;28;20032;-81
2024/02/20 09:55:20;;;;;;;29.02;4.47;;;;;;;8.57;100.00;102813.59;5051814;28;20382;-81
2024/02/20 09:57:49;;;;;;;28.08;4.57;;;;;;;8.58;100.00;102810.00;5051864;28;20033;-81
2024/02/20 10:00:15;;;;;;;32.70;5.15;;;;;;;8.56;100.00;102800.41;5051809;28;20043;-81
2024/02/20 10:02:44;;;;;;;23.40;4.40;;;;;;;8.68;100.00;102798.91;5034297;28;20044;-80
2024/02/20 10:05:15;;;;;;;23.83;4.85;;;;;;;8.78;100.00;102805.47;5052374;28;20091;-81
2024/02/20 10:07:40;;;;;;;22.80;4.18;;;;;;;8.96;100.00;102806.31;5050630;28;20061;-82
2024/02/20 10:10:10;;;;;;;31.95;5.07;;;;;;;9.06;100.00;102804.00;5051639;28;20043;-80
2024/02/20 10:12:37;;;;;;;26.17;4.63;;;;;;;9.22;100.00;102793.44;5052213;28;20055;-80
2024/02/20 10:15:07;;;;;;;27.17;4.72;;;;;;;9.52;100.00;102797.09;5051778;28;20482;-79
2024/02/20 10:17:33;;;;;;;26.67;5.40;;;;;;;9.87;100.00;102796.91;5051765;28;20083;-79
2024/02/20 10:20:12;;;;;;;25.83;4.72;;;;;;;10.31;100.00;102791.78;5051991;28;20025;-80
2024/02/20 10:22:41;;;;;;;25.27;4.88;;;;;;;10.64;100.00;102791.63;5051636;28;20025;-84
2024/02/20 10:25:09;;;;;;;25.88;5.00;;;;;;;11.06;100.00;102794.44;5051428;28;20444;-79
2024/02/20 10:27:35;;;;;;;26.88;4.40;;;;;;;11.53;100.00;102785.28;5050833;28;20352;-79
2024/02/20 10:30:04;;;;;;;25.08;4.57;;;;;;;12.05;100.00;102783.72;5051739;28;20032;-79
2024/02/20 10:32:34;;;;;;;25.50;4.55;;;;;;;12.48;100.00;102783.53;5051545;28;20471;-79
2024/02/20 10:35:05;;;;;;;22.75;4.50;;;;;;;13.70;100.00;102780.38;5052242;28;20453;-79
2024/02/20 10:37:30;;;;;;;29.25;4.32;;;;;;;14.69;100.00;102793.53;5051785;28;20049;-80
2024/02/20 10:40:11;;;;;;;25.17;5.13;;;;;;;14.99;100.00;102787.66;5052225;28;20064;-79
2024/02/20 10:42:38;;;;;;;27.00;5.50;;;;;;;14.90;100.00;102777.63;5051406;28;20486;-78
2024/02/20 10:45:06;;;;;;;25.45;4.57;;;;;;;14.32;100.00;102777.63;5051218;28;20033;-79
2024/02/20 10:47:35;;;;;;;22.15;4.93;;;;;;;13.89;100.00;102779.84;5051583;28;20040;-79
2024/02/20 10:50:01;;;;;;;26.77;4.78;;;;;;;13.69;100.00;102791.16;5051347;28;20119;-80
2024/02/20 10:52:28;;;;;;;25.77;4.35;;;;;;;13.61;100.00;102778.34;5051848;28;20039;-79
2024/02/20 10:54:55;;;;;;;25.52;4.80;;;;;;;13.79;100.00;102781.50;5052376;28;20101;-80
2024/02/20 10:57:20;;;;;;;30.10;4.95;;;;;;;13.89;100.00;102782.53;5052165;28;20071;-79
2024/02/20 10:59:49;;;;;;;23.17;4.82;;;;;;;14.26;100.00;102781.59;5052151;28;20033;-80
2024/02/20 11:02:18;;;;;;;27.60;4.97;;;;;;;14.73;100.00;102793.19;5052400;28;20032;-80
2024/02/20 11:04:45;;;;;;;27.70;4.90;;;;;;;14.64;100.00;102785.88;5052049;28;20025;-83
2024/02/20 11:07:10;;;;;;;28.55;4.68;;;;;;;13.68;100.00;102774.25;5051086;28;20087;-80
2024/02/20 11:09:35;;;;;;;23.75;4.30;;;;;;;13.33;100.00;102774.09;5050418;28;20080;-80
2024/02/20 11:12:08;;;;;;;25.30;4.45;;;;;;;12.80;100.00;102777.78;5053241;28;20056;-83